createdAt,value
2023-08-08T00:00:49.466Z,4.60
2023-08-08T00:03:16.881Z,5.75
2023-08-08T00:05:44.214Z,4.28
2023-08-08T00:08:11.404Z,4.32
2023-08-08T00:10:38.711Z,4.25
2023-08-08T00:13:05.930Z,4.78
2023-08-08T00:15:33.999Z,4.18
2023-08-08T00:18:01.287Z,4.75
2023-08-08T00:20:28.531Z,4.55
2023-08-08T00:22:55.750Z,4.85
2023-08-08T00:25:22.954Z,4.28
2023-08-08T00:27:51.611Z,3.90
2023-08-08T00:30:18.854Z,3.67
2023-08-08T00:32:46.184Z,3.65
2023-08-08T00:35:13.462Z,3.67
2023-08-08T00:37:40.638Z,4.03
2023-08-08T00:40:08.085Z,4.10
2023-08-08T00:42:35.300Z,3.90
2023-08-08T00:45:05.534Z,5.50
2023-08-08T00:47:36.070Z,4.30
2023-08-08T00:50:04.329Z,4.43
2023-08-08T00:52:31.697Z,4.75
2023-08-08T00:54:58.992Z,4.90
2023-08-08T00:57:26.328Z,4.60
2023-08-08T00:59:53.623Z,4.80
2023-08-08T01:02:20.941Z,4.32
2023-08-08T01:04:48.214Z,3.97
2023-08-08T01:07:25.456Z,3.72
2023-08-08T01:09:56.436Z,4.47
2023-08-08T01:12:25.720Z,3.97
2023-08-08T01:14:53.331Z,4.80
2023-08-08T01:17:21.255Z,4.20
2023-08-08T01:19:48.714Z,5.60
2023-08-08T01:22:25.245Z,4.57
2023-08-08T01:24:52.898Z,5.10
2023-08-08T01:27:20.131Z,4.22
2023-08-08T01:29:47.614Z,4.15
2023-08-08T01:32:14.813Z,4.40
2023-08-08T01:34:42.051Z,4.25
2023-08-08T01:37:12.914Z,4.63
2023-08-08T01:39:40.568Z,4.95
2023-08-08T01:42:08.217Z,4.47
2023-08-08T01:44:36.168Z,4.30
2023-08-08T01:47:03.625Z,4.90
2023-08-08T01:49:30.911Z,4.32
2023-08-08T01:51:58.399Z,4.00
2023-08-08T01:54:25.831Z,4.03
2023-08-08T01:56:53.115Z,4.10
2023-08-08T01:59:20.330Z,4.07
2023-08-08T02:01:47.517Z,4.20
2023-08-08T02:04:14.860Z,4.22
2023-08-08T02:06:42.152Z,3.92
2023-08-08T02:09:09.481Z,4.30
2023-08-08T02:11:36.775Z,4.60
2023-08-08T02:14:03.998Z,4.60
2023-08-08T02:16:31.334Z,4.75
2023-08-08T02:18:58.667Z,4.40
2023-08-08T02:21:25.875Z,4.00
2023-08-08T02:23:53.116Z,4.00
2023-08-08T02:26:20.359Z,4.68
2023-08-08T02:28:47.577Z,4.38
2023-08-08T02:31:21.526Z,4.30
2023-08-08T02:33:52.070Z,5.22
2023-08-08T02:36:20.168Z,4.85
2023-08-08T02:38:47.412Z,4.65
2023-08-08T02:41:14.618Z,4.70
2023-08-08T02:43:41.823Z,5.55
2023-08-08T02:46:09.068Z,5.50
2023-08-08T02:48:36.347Z,5.47
2023-08-08T02:51:03.603Z,5.35
2023-08-08T02:53:30.858Z,5.05
2023-08-08T02:55:58.111Z,5.20
2023-08-08T02:58:25.378Z,4.57
2023-08-08T03:00:53.614Z,4.53
2023-08-08T03:03:20.924Z,5.70
2023-08-08T03:05:48.189Z,5.72
2023-08-08T03:08:15.445Z,5.30
2023-08-08T03:10:42.682Z,6.00
2023-08-08T03:13:10.072Z,5.18
2023-08-08T03:15:37.541Z,6.05
2023-08-08T03:18:05.070Z,5.60
2023-08-08T03:20:32.443Z,5.00
2023-08-08T03:22:59.639Z,5.85
2023-08-08T03:25:26.843Z,4.82
2023-08-08T03:27:54.094Z,5.25
2023-08-08T03:30:21.287Z,5.43
2023-08-08T03:32:48.577Z,5.57
2023-08-08T03:35:16.237Z,5.38
2023-08-08T03:37:43.810Z,6.13
2023-08-08T03:40:11.307Z,5.97
2023-08-08T03:42:38.481Z,5.63
2023-08-08T03:45:05.949Z,6.45
2023-08-08T03:47:33.210Z,5.35
2023-08-08T03:50:00.445Z,6.65
2023-08-08T03:52:27.711Z,5.65
2023-08-08T03:54:54.930Z,5.55
2023-08-08T03:57:22.114Z,5.10
2023-08-08T03:59:49.353Z,5.38
2023-08-08T04:02:16.587Z,5.45
2023-08-08T04:04:43.796Z,5.30
2023-08-08T04:07:10.988Z,6.22
2023-08-08T04:09:38.211Z,5.35
2023-08-08T04:12:05.606Z,5.97
2023-08-08T04:14:33.028Z,5.70
2023-08-08T04:17:00.259Z,4.70
2023-08-08T04:19:27.534Z,5.28
2023-08-08T04:21:54.846Z,5.15
2023-08-08T04:24:22.070Z,4.68
2023-08-08T04:26:49.299Z,5.53
2023-08-08T04:29:16.513Z,5.70
2023-08-08T04:31:43.702Z,5.50
2023-08-08T04:34:11.753Z,5.07
2023-08-08T04:36:39.016Z,5.88
2023-08-08T04:39:06.350Z,5.10
2023-08-08T04:41:33.542Z,5.60
2023-08-08T04:44:00.710Z,6.05
2023-08-08T04:46:28.029Z,6.10
2023-08-08T04:48:56.293Z,6.03
2023-08-08T04:51:23.582Z,5.28
2023-08-08T04:53:50.773Z,5.30
2023-08-08T04:56:18.027Z,6.10
2023-08-08T04:58:45.300Z,6.53
2023-08-08T05:01:15.656Z,6.32
2023-08-08T05:03:43.134Z,7.10
2023-08-08T05:06:10.396Z,5.30
2023-08-08T05:08:37.581Z,5.25
2023-08-08T05:11:04.748Z,6.03
2023-08-08T05:13:31.963Z,5.82
2023-08-08T05:15:59.238Z,6.18
2023-08-08T05:18:26.478Z,6.47
2023-08-08T05:20:53.652Z,6.25
2023-08-08T05:23:20.912Z,7.95
2023-08-08T05:25:48.116Z,6.35
2023-08-08T05:28:15.396Z,6.78
2023-08-08T05:30:42.591Z,6.68
2023-08-08T05:33:10.037Z,9.48
2023-08-08T05:35:37.265Z,12.23
2023-08-08T05:38:04.556Z,16.42
2023-08-08T05:40:31.823Z,18.90
2023-08-08T05:42:59.046Z,12.10
2023-08-08T05:45:26.298Z,7.32
2023-08-08T05:47:53.627Z,7.05
2023-08-08T05:50:20.838Z,6.60
2023-08-08T05:52:48.185Z,6.65
2023-08-08T05:55:15.552Z,25.35
2023-08-08T05:57:42.966Z,17.63
2023-08-08T06:00:12.375Z,9.52
2023-08-08T06:02:39.799Z,4.38
2023-08-08T06:05:07.408Z,5.13
2023-08-08T06:07:34.678Z,3.72
2023-08-08T06:10:01.944Z,3.20
2023-08-08T06:12:29.188Z,2.53
2023-08-08T06:14:56.462Z,3.30
2023-08-08T06:17:24.687Z,2.42
2023-08-08T06:19:51.991Z,2.47
2023-08-08T06:22:19.724Z,2.72
2023-08-08T06:24:48.087Z,2.83
2023-08-08T06:27:15.290Z,2.50
2023-08-08T06:29:42.542Z,2.38
2023-08-08T06:32:09.898Z,1.80
2023-08-08T06:34:37.085Z,1.90
2023-08-08T06:37:04.570Z,1.70
2023-08-08T06:39:32.442Z,1.70
2023-08-08T06:41:59.982Z,1.38
2023-08-08T06:44:27.267Z,1.50
2023-08-08T06:46:54.441Z,1.58
2023-08-08T06:49:21.631Z,1.60
2023-08-08T06:51:48.828Z,1.48
2023-08-08T06:54:16.032Z,1.27
2023-08-08T06:56:43.494Z,2.08
2023-08-08T06:59:10.673Z,1.50
2023-08-08T07:01:37.942Z,1.75
2023-08-08T07:04:05.256Z,1.38
2023-08-08T07:06:32.459Z,1.60
2023-08-08T07:09:00.099Z,2.63
2023-08-08T07:11:27.514Z,1.25
2023-08-08T07:13:54.792Z,1.00
2023-08-08T07:16:22.052Z,1.10
2023-08-08T07:18:52.344Z,1.08
2023-08-08T07:21:21.454Z,1.08
2023-08-08T07:23:48.749Z,1.23
2023-08-08T07:26:16.218Z,1.63
2023-08-08T07:28:43.453Z,1.23
2023-08-08T07:31:10.814Z,1.00
2023-08-08T07:33:38.151Z,1.25
2023-08-08T07:36:06.205Z,0.80
2023-08-08T07:38:34.550Z,1.00
2023-08-08T07:41:01.767Z,0.90
2023-08-08T07:43:29.026Z,1.00
2023-08-08T07:45:56.270Z,0.80
2023-08-08T07:48:23.522Z,0.82
2023-08-08T07:50:50.777Z,0.90
2023-08-08T07:53:18.030Z,0.75
2023-08-08T07:55:45.302Z,1.00
2023-08-08T07:58:12.609Z,0.90
2023-08-08T08:00:39.979Z,0.80
2023-08-08T08:03:07.547Z,1.17
2023-08-08T08:05:35.976Z,1.00
2023-08-08T08:08:03.645Z,1.48
2023-08-08T08:10:30.938Z,0.98
2023-08-08T08:12:59.457Z,1.00
2023-08-08T08:15:27.443Z,1.00
2023-08-08T08:17:54.871Z,0.85
2023-08-08T08:20:22.753Z,1.02
2023-08-08T08:22:50.044Z,0.88
2023-08-08T08:25:17.258Z,1.10
2023-08-08T08:27:44.434Z,1.17
2023-08-08T08:30:11.985Z,1.10
2023-08-08T08:32:41.172Z,1.20
2023-08-08T08:35:08.981Z,1.40
2023-08-08T08:37:36.738Z,1.15
2023-08-08T08:40:05.848Z,1.20
2023-08-08T08:42:34.450Z,0.90
2023-08-08T08:45:03.218Z,1.30
2023-08-08T08:47:32.370Z,0.90
2023-08-08T08:50:00.177Z,1.10
2023-08-08T08:52:27.461Z,1.20
2023-08-08T08:54:55.291Z,0.75
2023-08-08T08:57:25.691Z,0.77
2023-08-08T08:59:53.221Z,1.00
2023-08-08T09:02:20.762Z,0.95
2023-08-08T09:04:48.330Z,0.75
2023-08-08T09:07:16.501Z,0.80
2023-08-08T09:09:46.500Z,0.80
2023-08-08T09:12:13.972Z,1.02
2023-08-08T09:14:42.521Z,0.65
2023-08-08T09:17:16.495Z,0.93
2023-08-08T09:19:47.804Z,0.80
2023-08-08T09:22:15.635Z,0.90
2023-08-08T09:24:43.262Z,0.90
2023-08-08T09:27:11.048Z,0.80
2023-08-08T09:29:38.899Z,1.02
2023-08-08T09:32:07.121Z,1.00
2023-08-08T09:34:34.746Z,0.88
2023-08-08T09:37:02.186Z,0.93
2023-08-08T09:39:30.461Z,1.13
2023-08-08T09:41:58.235Z,0.90
2023-08-08T09:44:27.498Z,1.05
2023-08-08T09:46:54.710Z,1.13
2023-08-08T09:49:23.148Z,0.90
2023-08-08T09:51:51.090Z,0.70
2023-08-08T09:54:18.720Z,0.90
2023-08-08T09:56:46.332Z,0.80
2023-08-08T09:59:13.795Z,1.00
2023-08-08T10:01:43.331Z,1.00
2023-08-08T10:04:11.712Z,0.90
2023-08-08T10:06:38.998Z,0.90
2023-08-08T10:09:06.298Z,1.08
2023-08-08T10:11:34.030Z,1.20
2023-08-08T10:14:03.701Z,1.20
2023-08-08T10:16:33.385Z,1.15
2023-08-08T10:19:02.159Z,1.13
2023-08-08T10:21:30.314Z,0.88
2023-08-08T10:24:07.993Z,1.10
2023-08-08T10:26:35.627Z,1.25
2023-08-08T10:29:03.216Z,1.20
2023-08-08T10:31:36.058Z,1.10
2023-08-08T10:34:04.679Z,1.17
2023-08-08T10:36:45.194Z,1.05
2023-08-08T10:39:19.793Z,1.13
2023-08-08T10:41:48.434Z,1.33
2023-08-08T10:44:15.878Z,1.10
2023-08-08T10:46:43.571Z,1.42
2023-08-08T10:49:16.027Z,1.13
2023-08-08T10:51:46.541Z,1.02
2023-08-08T10:54:15.351Z,0.95
2023-08-08T10:56:43.032Z,1.02
2023-08-08T10:59:36.453Z,0.80
2023-08-08T11:02:04.091Z,1.15
2023-08-08T11:04:33.641Z,1.00
2023-08-08T11:07:00.992Z,0.80
2023-08-08T11:09:28.253Z,0.90
2023-08-08T11:11:55.505Z,1.05
2023-08-08T11:14:23.999Z,0.90
2023-08-08T11:16:52.240Z,0.70
2023-08-08T11:19:20.789Z,1.10
2023-08-08T11:21:48.902Z,0.90
2023-08-08T11:24:16.206Z,1.00
2023-08-08T11:26:45.101Z,0.80
2023-08-08T11:29:12.675Z,0.93
2023-08-08T11:31:39.962Z,1.10
2023-08-08T11:34:07.503Z,0.88
2023-08-08T11:36:35.504Z,0.95
2023-08-08T11:39:11.015Z,1.00
2023-08-08T11:41:38.886Z,1.10
2023-08-08T11:44:06.472Z,0.85
2023-08-08T11:46:33.847Z,1.10
2023-08-08T11:49:08.104Z,0.80
2023-08-08T11:51:36.184Z,1.00
2023-08-08T11:54:07.335Z,1.08
2023-08-08T11:56:35.631Z,1.20
2023-08-08T11:59:03.273Z,1.00
2023-08-08T12:01:32.881Z,0.95
2023-08-08T12:04:00.538Z,1.30
2023-08-08T12:06:31.344Z,0.90
2023-08-08T12:08:58.595Z,0.95
2023-08-08T12:11:26.509Z,1.00
2023-08-08T12:14:00.831Z,0.90
2023-08-08T12:16:32.344Z,0.98
2023-08-08T12:19:04.950Z,1.00
2023-08-08T12:21:34.255Z,1.13
2023-08-08T12:24:01.664Z,0.80
2023-08-08T12:26:28.882Z,0.95
2023-08-08T12:28:56.350Z,0.70
2023-08-08T12:31:23.681Z,0.73
2023-08-08T12:33:51.685Z,0.80
2023-08-08T12:36:19.803Z,0.90
2023-08-08T12:38:48.167Z,0.85
2023-08-08T12:41:15.483Z,1.42
2023-08-08T12:43:42.782Z,1.02
2023-08-08T12:46:10.100Z,1.25
2023-08-08T12:48:37.632Z,1.13
2023-08-08T12:51:06.006Z,1.33
2023-08-08T12:53:33.272Z,1.13
2023-08-08T12:56:00.719Z,0.90
2023-08-08T12:58:27.932Z,1.08
2023-08-08T13:00:55.232Z,1.00
2023-08-08T13:03:22.602Z,1.00
2023-08-08T13:05:49.817Z,0.80
2023-08-08T13:08:17.164Z,1.05
2023-08-08T13:10:44.447Z,0.90
2023-08-08T13:13:11.914Z,0.93
2023-08-08T13:15:39.197Z,1.50
2023-08-08T13:18:06.627Z,1.20
2023-08-08T13:20:33.874Z,1.00
2023-08-08T13:23:01.160Z,1.38
2023-08-08T13:25:28.366Z,1.13
2023-08-08T13:27:55.617Z,1.25
2023-08-08T13:30:22.845Z,0.90
2023-08-08T13:32:50.195Z,1.17
2023-08-08T13:35:17.483Z,1.42
2023-08-08T13:37:46.474Z,1.23
2023-08-08T13:40:13.640Z,1.10
2023-08-08T13:42:40.821Z,1.10
2023-08-08T13:45:08.501Z,1.10
2023-08-08T13:47:36.735Z,1.27
2023-08-08T13:50:04.078Z,1.23
2023-08-08T13:52:33.977Z,1.40
2023-08-08T13:55:01.540Z,1.10
2023-08-08T13:57:28.720Z,1.33
2023-08-08T13:59:55.938Z,0.90
2023-08-08T14:02:23.171Z,1.30
2023-08-08T14:04:50.491Z,1.00
2023-08-08T14:07:17.700Z,1.40
2023-08-08T14:09:44.886Z,1.95
2023-08-08T14:12:12.807Z,2.33
2023-08-08T14:14:39.998Z,1.90
2023-08-08T14:17:07.404Z,1.50
2023-08-08T14:19:34.820Z,2.78
2023-08-08T14:22:02.330Z,3.30
2023-08-08T14:24:29.741Z,0.90
2023-08-08T14:26:57.010Z,1.15
2023-08-08T14:29:24.210Z,4.43
2023-08-08T14:31:59.775Z,1.20
2023-08-08T14:34:34.837Z,6.65
2023-08-08T14:37:02.821Z,4.50
2023-08-08T14:39:30.351Z,1.70
2023-08-08T14:41:58.061Z,0.75
2023-08-08T14:44:25.523Z,11.27
2023-08-08T14:46:52.739Z,5.32
2023-08-08T14:49:20.105Z,14.75
2023-08-08T14:51:47.425Z,19.88
2023-08-08T14:54:14.603Z,8.85
2023-08-08T14:56:41.910Z,6.05
2023-08-08T14:59:09.096Z,2.63
2023-08-08T15:01:36.430Z,1.40
2023-08-08T15:04:03.849Z,2.00
2023-08-08T15:06:31.134Z,1.08
2023-08-08T15:08:58.339Z,2.20
2023-08-08T15:11:25.681Z,5.70
2023-08-08T15:13:52.873Z,3.17
2023-08-08T15:16:20.119Z,2.40
2023-08-08T15:18:47.412Z,1.00
2023-08-08T15:21:14.763Z,1.40
2023-08-08T15:23:43.366Z,1.05
2023-08-08T15:26:10.646Z,1.48
2023-08-08T15:28:37.922Z,1.10
2023-08-08T15:31:06.325Z,1.42
2023-08-08T15:33:33.870Z,1.13
2023-08-08T15:36:01.107Z,1.00
2023-08-08T15:38:28.300Z,3.28
2023-08-08T15:40:55.470Z,4.35
2023-08-08T15:43:22.761Z,1.90
2023-08-08T15:45:49.981Z,2.70
2023-08-08T15:48:17.757Z,4.15
2023-08-08T15:50:45.283Z,3.47
2023-08-08T15:53:12.684Z,1.65
2023-08-08T15:55:40.163Z,1.45
2023-08-08T15:58:08.226Z,1.63
2023-08-08T16:00:35.907Z,2.75
2023-08-08T16:03:03.406Z,13.30
2023-08-08T16:05:31.248Z,2.28
2023-08-08T16:07:58.493Z,1.80
2023-08-08T16:10:25.764Z,1.40
2023-08-08T16:12:52.934Z,1.70
2023-08-08T16:15:20.920Z,1.30
2023-08-08T16:17:48.204Z,2.33
2023-08-08T16:20:16.832Z,2.38
2023-08-08T16:22:45.806Z,1.23
2023-08-08T16:25:12.981Z,1.45
2023-08-08T16:27:41.677Z,1.30
2023-08-08T16:30:09.634Z,1.30
2023-08-08T16:32:36.862Z,1.40
2023-08-08T16:35:04.382Z,1.00
2023-08-08T16:37:31.601Z,1.33
2023-08-08T16:39:59.465Z,1.88
2023-08-08T16:42:26.750Z,1.60
2023-08-08T16:44:54.028Z,1.95
2023-08-08T16:47:22.005Z,1.40
2023-08-08T16:49:49.239Z,1.08
2023-08-08T16:52:16.464Z,1.00
2023-08-08T16:54:43.664Z,1.63
2023-08-08T16:57:12.758Z,1.55
2023-08-08T16:59:40.279Z,1.60
2023-08-08T17:02:07.769Z,1.27
2023-08-08T17:04:35.058Z,1.15
2023-08-08T17:07:02.313Z,1.05
2023-08-08T17:09:29.721Z,1.40
2023-08-08T17:11:56.975Z,1.30
2023-08-08T17:14:24.252Z,0.88
2023-08-08T17:16:54.249Z,1.15
2023-08-08T17:19:21.940Z,1.17
2023-08-08T17:21:49.124Z,1.00
2023-08-08T17:24:17.915Z,0.75
2023-08-08T17:26:45.198Z,2.67
2023-08-08T17:29:12.514Z,1.08
2023-08-08T17:31:39.730Z,1.10
2023-08-08T17:34:07.157Z,1.40
2023-08-08T17:36:36.781Z,1.30
2023-08-08T17:39:04.797Z,1.20
2023-08-08T17:41:32.042Z,1.10
2023-08-08T17:43:59.230Z,1.25
2023-08-08T17:46:26.597Z,0.95
2023-08-08T17:48:54.445Z,1.33
2023-08-08T17:51:21.756Z,1.20
2023-08-08T17:53:49.399Z,1.10
2023-08-08T17:56:16.710Z,1.02
2023-08-08T17:58:45.921Z,1.10
2023-08-08T18:01:13.639Z,1.40
2023-08-08T18:03:41.371Z,1.23
2023-08-08T18:06:08.619Z,1.10
2023-08-08T18:08:35.914Z,1.02
2023-08-08T18:11:03.152Z,1.10
2023-08-08T18:13:30.340Z,1.10
2023-08-08T18:16:01.086Z,1.35
2023-08-08T18:18:28.642Z,1.40
2023-08-08T18:20:55.926Z,1.38
2023-08-08T18:23:23.311Z,1.60
2023-08-08T18:25:50.943Z,1.60
2023-08-08T18:28:19.145Z,1.48
2023-08-08T18:30:46.575Z,1.42
2023-08-08T18:33:14.338Z,1.55
2023-08-08T18:35:41.757Z,1.15
2023-08-08T18:38:08.984Z,1.23
2023-08-08T18:40:36.522Z,1.40
2023-08-08T18:43:03.874Z,1.30
2023-08-08T18:45:31.189Z,1.20
2023-08-08T18:47:58.658Z,1.20
2023-08-08T18:50:26.008Z,1.30
2023-08-08T18:52:53.350Z,1.70
2023-08-08T18:55:20.820Z,1.40
2023-08-08T18:57:48.028Z,1.15
2023-08-08T19:00:15.352Z,1.38
2023-08-08T19:02:43.147Z,1.45
2023-08-08T19:05:10.643Z,1.40
2023-08-08T19:07:37.855Z,1.27
2023-08-08T19:10:05.365Z,1.52
2023-08-08T19:12:32.558Z,1.75
2023-08-08T19:14:59.728Z,1.25
2023-08-08T19:17:26.997Z,1.30
2023-08-08T19:19:54.465Z,1.30
2023-08-08T19:22:21.668Z,1.15
2023-08-08T19:24:50.002Z,1.67
2023-08-08T19:27:17.439Z,1.92
2023-08-08T19:29:44.645Z,1.70
2023-08-08T19:32:12.095Z,1.60
2023-08-08T19:34:39.395Z,1.88
2023-08-08T19:37:06.678Z,1.95
2023-08-08T19:39:35.825Z,2.35
2023-08-08T19:42:03.645Z,2.00
2023-08-08T19:44:31.048Z,1.88
2023-08-08T19:46:59.121Z,2.15
2023-08-08T19:49:28.054Z,2.05
2023-08-08T19:51:55.249Z,1.98
2023-08-08T19:54:22.499Z,1.80
2023-08-08T19:56:49.676Z,1.95
2023-08-08T19:59:17.038Z,1.85
2023-08-08T20:01:44.309Z,1.50
2023-08-08T20:04:11.868Z,1.48
2023-08-08T20:06:39.024Z,1.42
2023-08-08T20:09:06.455Z,1.42
2023-08-08T20:11:34.665Z,1.40
2023-08-08T20:14:01.853Z,1.70
2023-08-08T20:16:31.203Z,1.40
2023-08-08T20:18:58.401Z,1.52
2023-08-08T20:21:25.766Z,1.60
2023-08-08T20:23:53.181Z,1.45
2023-08-08T20:26:20.434Z,1.50
2023-08-08T20:28:47.648Z,1.40
2023-08-08T20:31:14.980Z,1.20
2023-08-08T20:33:46.093Z,1.52
2023-08-08T20:36:14.098Z,1.45
2023-08-08T20:38:41.674Z,1.65
2023-08-08T20:41:09.097Z,1.50
2023-08-08T20:43:36.352Z,1.55
2023-08-08T20:46:03.746Z,1.50
2023-08-08T20:48:31.077Z,2.00
2023-08-08T20:50:58.266Z,1.60
2023-08-08T20:53:25.522Z,1.88
2023-08-08T20:55:52.677Z,1.88
2023-08-08T20:58:20.010Z,1.90
2023-08-08T21:00:47.275Z,1.83
2023-08-08T21:03:14.625Z,1.75
2023-08-08T21:05:41.993Z,1.70
2023-08-08T21:08:09.170Z,1.92
2023-08-08T21:10:36.355Z,1.52
2023-08-08T21:13:04.131Z,1.50
2023-08-08T21:15:31.489Z,1.90
2023-08-08T21:17:59.053Z,1.90
2023-08-08T21:20:26.308Z,2.10
2023-08-08T21:22:53.586Z,2.17
2023-08-08T21:25:20.869Z,1.80
2023-08-08T21:27:48.054Z,2.08
2023-08-08T21:30:15.269Z,2.20
2023-08-08T21:32:42.539Z,2.15
2023-08-08T21:35:09.816Z,2.20
2023-08-08T21:37:39.354Z,2.30
2023-08-08T21:40:06.995Z,1.80
2023-08-08T21:42:34.295Z,1.90
2023-08-08T21:45:01.818Z,2.10
2023-08-08T21:47:29.077Z,2.60
2023-08-08T21:49:56.295Z,2.35
2023-08-08T21:52:23.492Z,2.13
2023-08-08T21:54:50.803Z,1.73
2023-08-08T21:57:18.004Z,1.90
2023-08-08T21:59:45.198Z,2.20
2023-08-08T22:02:12.455Z,2.15
2023-08-08T22:04:41.708Z,2.25
2023-08-08T22:07:10.006Z,2.25
2023-08-08T22:09:37.236Z,2.10
2023-08-08T22:12:04.551Z,2.30
2023-08-08T22:14:31.739Z,2.08
2023-08-08T22:16:59.112Z,1.85
2023-08-08T22:19:26.391Z,1.88
2023-08-08T22:21:53.652Z,1.77
2023-08-08T22:24:22.051Z,1.67
2023-08-08T22:26:49.316Z,1.92
2023-08-08T22:29:16.508Z,1.77
2023-08-08T22:31:43.753Z,1.58
2023-08-08T22:34:11.011Z,1.90
2023-08-08T22:36:38.215Z,1.48
2023-08-08T22:39:05.665Z,1.80
2023-08-08T22:41:32.917Z,1.73
2023-08-08T22:44:00.119Z,1.70
2023-08-08T22:46:27.650Z,1.60
2023-08-08T22:48:55.024Z,1.70
2023-08-08T22:51:23.000Z,1.63
2023-08-08T22:53:50.348Z,1.80
2023-08-08T22:56:17.518Z,2.10
2023-08-08T22:58:45.028Z,1.83
2023-08-08T23:01:12.263Z,1.70
2023-08-08T23:03:39.478Z,1.98
2023-08-08T23:06:06.696Z,1.92
2023-08-08T23:08:34.040Z,1.80
2023-08-08T23:11:01.682Z,1.73
2023-08-08T23:13:29.016Z,2.00
2023-08-08T23:15:56.216Z,2.00
2023-08-08T23:18:23.473Z,1.83
2023-08-08T23:20:50.754Z,2.08
2023-08-08T23:23:18.044Z,1.90
2023-08-08T23:25:45.559Z,1.90
2023-08-08T23:28:14.317Z,2.30
2023-08-08T23:30:41.718Z,1.90
2023-08-08T23:33:09.037Z,2.10
2023-08-08T23:35:36.351Z,1.83
2023-08-08T23:38:03.771Z,1.90
2023-08-08T23:40:31.090Z,1.65
2023-08-08T23:42:59.211Z,1.50
2023-08-08T23:45:27.032Z,2.28
2023-08-08T23:47:54.295Z,1.65
2023-08-08T23:50:21.656Z,1.95
2023-08-08T23:52:48.835Z,2.17
2023-08-08T23:55:16.188Z,1.42
2023-08-08T23:57:43.344Z,2.22
